createdAt,value
2023-03-07T00:00:20.888Z,11.31
2023-03-07T00:02:51.767Z,11.30
2023-03-07T00:05:18.681Z,11.53
2023-03-07T00:07:45.204Z,11.35
2023-03-07T00:10:11.995Z,11.38
2023-03-07T00:12:38.650Z,11.85
2023-03-07T00:15:05.744Z,11.82
2023-03-07T00:17:32.249Z,11.86
2023-03-07T00:19:58.769Z,11.77
2023-03-07T00:22:25.289Z,11.81
2023-03-07T00:24:52.059Z,11.73
2023-03-07T00:27:18.650Z,11.89
2023-03-07T00:29:45.358Z,11.93
2023-03-07T00:32:11.949Z,11.88
2023-03-07T00:34:38.544Z,11.90
2023-03-07T00:37:05.082Z,12.05
2023-03-07T00:39:31.667Z,11.81
2023-03-07T00:41:58.213Z,11.82
2023-03-07T00:44:25.449Z,11.94
2023-03-07T00:46:51.932Z,11.89
2023-03-07T00:49:20.322Z,12.23
2023-03-07T00:51:46.814Z,12.17
2023-03-07T00:54:13.441Z,12.13
2023-03-07T00:56:40.180Z,12.13
2023-03-07T00:59:07.398Z,12.21
2023-03-07T01:01:34.070Z,11.95
2023-03-07T01:04:00.762Z,11.97
2023-03-07T01:06:30.299Z,12.02
2023-03-07T01:08:59.440Z,11.97
2023-03-07T01:11:27.485Z,12.14
2023-03-07T01:13:59.445Z,12.18
2023-03-07T01:16:29.522Z,12.11
2023-03-07T01:18:59.195Z,12.17
2023-03-07T01:21:32.547Z,11.99
2023-03-07T01:24:02.258Z,11.94
2023-03-07T01:26:31.013Z,12.18
2023-03-07T01:29:01.555Z,11.98
2023-03-07T01:31:30.336Z,12.11
2023-03-07T01:33:57.276Z,11.85
2023-03-07T01:36:30.268Z,11.75
2023-03-07T01:39:10.565Z,11.86
2023-03-07T01:41:41.194Z,11.53
2023-03-07T01:44:22.851Z,11.93
2023-03-07T01:46:55.557Z,11.76
2023-03-07T01:49:33.929Z,11.73
2023-03-07T01:52:08.240Z,11.82
2023-03-07T01:54:49.011Z,11.90
2023-03-07T01:57:21.679Z,11.86
2023-03-07T01:59:52.012Z,11.86
2023-03-07T02:02:22.628Z,12.06
2023-03-07T02:04:58.047Z,12.08
2023-03-07T02:07:27.792Z,11.92
2023-03-07T02:09:56.398Z,11.78
2023-03-07T02:12:23.497Z,11.93
2023-03-07T02:14:51.448Z,11.92
2023-03-07T02:17:19.115Z,11.94
2023-03-07T02:19:54.697Z,12.05
2023-03-07T02:22:21.425Z,11.87
2023-03-07T02:24:50.921Z,12.03
2023-03-07T02:27:17.455Z,11.93
2023-03-07T02:29:44.302Z,11.99
2023-03-07T02:32:11.731Z,11.96
2023-03-07T02:34:38.312Z,12.08
2023-03-07T02:37:22.073Z,12.16
2023-03-07T02:39:49.552Z,12.24
2023-03-07T02:42:22.682Z,12.26
2023-03-07T02:45:00.730Z,12.03
2023-03-07T02:47:30.428Z,12.25
2023-03-07T02:49:58.242Z,12.27
2023-03-07T02:52:27.770Z,12.23
2023-03-07T02:54:54.863Z,12.18
2023-03-07T02:57:22.397Z,12.05
2023-03-07T02:59:48.939Z,12.05
2023-03-07T03:02:15.607Z,11.97
2023-03-07T03:04:42.240Z,12.12
2023-03-07T03:07:09.155Z,12.21
2023-03-07T03:09:36.190Z,12.26
2023-03-07T03:12:03.810Z,12.20
2023-03-07T03:14:32.388Z,12.36
2023-03-07T03:16:58.973Z,12.64
2023-03-07T03:19:25.565Z,12.64
2023-03-07T03:21:52.201Z,12.66
2023-03-07T03:24:19.260Z,12.67
2023-03-07T03:26:47.216Z,12.48
2023-03-07T03:29:15.092Z,12.42
2023-03-07T03:31:41.762Z,12.53
2023-03-07T03:34:09.486Z,12.64
2023-03-07T03:36:36.324Z,12.73
2023-03-07T03:39:10.825Z,12.76
2023-03-07T03:41:41.982Z,12.73
2023-03-07T03:44:08.929Z,13.00
2023-03-07T03:46:36.565Z,13.28
2023-03-07T03:49:03.654Z,13.26
2023-03-07T03:51:31.139Z,13.01
2023-03-07T03:53:58.621Z,12.86
2023-03-07T03:56:27.755Z,12.73
2023-03-07T03:58:57.094Z,12.68
2023-03-07T04:01:26.564Z,12.56
2023-03-07T04:03:54.837Z,12.80
2023-03-07T04:06:30.420Z,12.54
2023-03-07T04:08:57.809Z,12.44
2023-03-07T04:11:24.882Z,12.62
2023-03-07T04:13:52.038Z,12.46
2023-03-07T04:16:19.737Z,12.42
2023-03-07T04:18:46.368Z,12.27
2023-03-07T04:21:12.934Z,12.22
2023-03-07T04:23:40.746Z,12.29
2023-03-07T04:26:09.995Z,12.08
2023-03-07T04:28:45.186Z,12.17
2023-03-07T04:31:24.689Z,12.21
2023-03-07T04:33:53.097Z,12.31
2023-03-07T04:36:20.518Z,12.24
2023-03-07T04:38:48.310Z,12.25
2023-03-07T04:41:20.086Z,12.17
2023-03-07T04:43:48.992Z,12.19
2023-03-07T04:46:16.824Z,12.36
2023-03-07T04:48:43.905Z,12.30
2023-03-07T04:51:10.573Z,12.21
2023-03-07T04:53:37.316Z,12.08
2023-03-07T04:56:07.039Z,12.11
2023-03-07T04:58:35.043Z,11.99
2023-03-07T05:01:03.240Z,11.98
2023-03-07T05:03:30.564Z,11.93
2023-03-07T05:06:02.736Z,12.02
2023-03-07T05:08:29.973Z,12.20
2023-03-07T05:10:56.831Z,12.20
2023-03-07T05:13:24.052Z,12.17
2023-03-07T05:15:54.857Z,12.18
2023-03-07T05:18:23.054Z,12.20
2023-03-07T05:20:50.287Z,12.23
2023-03-07T05:23:18.143Z,11.98
2023-03-07T05:25:47.128Z,12.19
2023-03-07T05:28:14.391Z,12.07
2023-03-07T05:30:40.937Z,12.13
2023-03-07T05:33:07.438Z,12.26
2023-03-07T05:35:34.694Z,12.34
2023-03-07T05:38:02.068Z,12.34
2023-03-07T05:40:30.756Z,12.32
2023-03-07T05:42:57.230Z,12.06
2023-03-07T05:45:24.184Z,12.21
2023-03-07T05:47:51.216Z,12.38
2023-03-07T05:50:19.050Z,12.22
2023-03-07T05:52:45.656Z,12.21
2023-03-07T05:55:12.218Z,12.17
2023-03-07T05:57:38.695Z,12.26
2023-03-07T06:00:06.335Z,12.27
2023-03-07T06:02:41.552Z,12.25
2023-03-07T06:05:11.364Z,12.07
2023-03-07T06:07:37.835Z,12.11
2023-03-07T06:10:04.779Z,11.99
2023-03-07T06:12:31.273Z,12.03
2023-03-07T06:14:57.874Z,12.06
2023-03-07T06:17:24.657Z,11.77
2023-03-07T06:19:51.721Z,11.74
2023-03-07T06:22:18.982Z,11.60
2023-03-07T06:24:45.582Z,11.83
2023-03-07T06:27:12.226Z,11.87
2023-03-07T06:29:39.218Z,12.05
2023-03-07T06:32:06.132Z,12.11
2023-03-07T06:34:33.298Z,11.84
2023-03-07T06:37:00.088Z,11.69
2023-03-07T06:39:27.304Z,11.69
2023-03-07T06:41:54.538Z,11.60
2023-03-07T06:44:21.099Z,12.04
2023-03-07T06:46:47.661Z,12.02
2023-03-07T06:49:17.547Z,12.25
2023-03-07T06:51:46.622Z,12.28
2023-03-07T06:54:13.237Z,12.35
2023-03-07T06:56:40.028Z,12.33
2023-03-07T06:59:07.015Z,12.22
2023-03-07T07:01:35.531Z,12.22
2023-03-07T07:04:03.301Z,12.33
2023-03-07T07:06:30.104Z,12.24
2023-03-07T07:08:57.948Z,12.02
2023-03-07T07:11:28.309Z,11.78
2023-03-07T07:13:55.593Z,11.96
2023-03-07T07:16:23.072Z,12.01
2023-03-07T07:18:51.889Z,11.92
2023-03-07T07:21:18.776Z,11.92
2023-03-07T07:23:46.071Z,11.85
2023-03-07T07:26:12.738Z,11.93
2023-03-07T07:28:39.256Z,11.79
2023-03-07T07:31:08.031Z,11.97
2023-03-07T07:33:35.160Z,11.74
2023-03-07T07:36:02.160Z,11.85
2023-03-07T07:38:29.424Z,12.06
2023-03-07T07:40:56.396Z,11.67
2023-03-07T07:43:24.117Z,11.26
2023-03-07T07:46:03.631Z,11.33
2023-03-07T07:48:31.533Z,11.05
2023-03-07T07:51:04.903Z,10.99
2023-03-07T07:53:32.531Z,11.03
2023-03-07T07:55:59.027Z,11.02
2023-03-07T07:58:25.922Z,11.02
2023-03-07T08:00:53.061Z,10.86
2023-03-07T08:03:19.652Z,10.80
2023-03-07T08:05:48.283Z,10.85
2023-03-07T08:08:16.225Z,10.67
2023-03-07T08:10:44.194Z,10.64
2023-03-07T08:13:15.379Z,10.69
2023-03-07T08:15:42.942Z,10.68
2023-03-07T08:18:12.348Z,10.69
2023-03-07T08:20:39.555Z,10.73
2023-03-07T08:23:06.100Z,10.63
2023-03-07T08:25:33.007Z,10.59
2023-03-07T08:27:59.678Z,10.73
2023-03-07T08:30:28.248Z,10.75
2023-03-07T08:32:55.844Z,10.66
2023-03-07T08:35:23.892Z,10.64
2023-03-07T08:37:54.833Z,10.71
2023-03-07T08:40:21.781Z,10.69
2023-03-07T08:42:48.282Z,10.70
2023-03-07T08:45:15.219Z,10.68
2023-03-07T08:47:41.946Z,10.34
2023-03-07T08:50:09.143Z,10.39
2023-03-07T08:52:35.766Z,10.09
2023-03-07T08:55:02.285Z,10.21
2023-03-07T08:57:28.930Z,10.11
2023-03-07T08:59:55.474Z,10.11
2023-03-07T09:02:21.964Z,10.27
2023-03-07T09:04:48.561Z,10.32
2023-03-07T09:07:15.102Z,10.45
2023-03-07T09:09:41.760Z,10.25
2023-03-07T09:12:08.532Z,10.10
2023-03-07T09:14:35.081Z,10.23
2023-03-07T09:17:01.672Z,10.52
2023-03-07T09:19:28.315Z,10.38
2023-03-07T09:21:55.299Z,10.90
2023-03-07T09:24:21.831Z,10.76
2023-03-07T09:26:48.402Z,11.21
2023-03-07T09:29:14.995Z,11.56
2023-03-07T09:31:41.702Z,11.47
2023-03-07T09:34:08.322Z,11.57
2023-03-07T09:36:35.954Z,11.33
2023-03-07T09:39:04.115Z,11.20
2023-03-07T09:41:39.042Z,10.90
2023-03-07T09:44:15.584Z,11.17
2023-03-07T09:47:23.088Z,11.31
2023-03-07T09:49:51.196Z,11.35
2023-03-07T09:52:24.759Z,11.11
2023-03-07T09:55:00.399Z,10.96
2023-03-07T09:57:34.489Z,11.34
2023-03-07T10:00:05.829Z,10.89
2023-03-07T10:03:03.938Z,11.23
2023-03-07T10:05:45.296Z,11.10
2023-03-07T10:08:17.712Z,10.78
2023-03-07T10:10:54.098Z,10.55
2023-03-07T10:13:23.575Z,10.33
2023-03-07T10:15:56.749Z,10.19
2023-03-07T10:18:32.677Z,10.10
2023-03-07T10:21:24.343Z,10.05
2023-03-07T10:24:03.580Z,10.50
2023-03-07T10:26:34.979Z,10.42
2023-03-07T10:29:12.310Z,10.21
2023-03-07T10:31:44.226Z,10.14
2023-03-07T10:34:28.381Z,10.15
2023-03-07T10:37:15.989Z,10.18
2023-03-07T10:39:54.260Z,10.23
2023-03-07T10:42:23.753Z,10.50
2023-03-07T10:44:51.894Z,10.42
2023-03-07T10:47:27.258Z,10.47
2023-03-07T10:50:02.279Z,10.05
2023-03-07T10:52:40.061Z,10.06
2023-03-07T10:55:38.003Z,9.96
2023-03-07T10:58:43.125Z,9.98
2023-03-07T11:01:17.549Z,10.02
2023-03-07T11:03:55.321Z,10.03
2023-03-07T11:06:39.234Z,9.86
2023-03-07T11:09:19.530Z,10.15
2023-03-07T11:11:53.753Z,9.97
2023-03-07T11:14:23.781Z,10.26
2023-03-07T11:16:59.314Z,10.08
2023-03-07T11:19:42.575Z,10.09
2023-03-07T11:22:29.508Z,10.15
2023-03-07T11:24:59.975Z,9.94
2023-03-07T11:27:44.779Z,9.98
2023-03-07T11:30:40.141Z,9.86
2023-03-07T11:33:58.649Z,10.00
2023-03-07T11:36:36.843Z,10.19
2023-03-07T11:39:09.465Z,10.00
2023-03-07T11:41:38.319Z,10.19
2023-03-07T11:44:18.655Z,10.52
2023-03-07T11:46:54.233Z,10.29
2023-03-07T11:49:45.426Z,10.35
2023-03-07T11:52:21.877Z,10.49
2023-03-07T11:55:12.617Z,10.20
2023-03-07T11:58:01.692Z,10.21
2023-03-07T12:00:59.405Z,10.37
2023-03-07T12:04:03.497Z,10.51
2023-03-07T12:06:56.054Z,10.98
2023-03-07T12:09:54.333Z,10.88
2023-03-07T12:12:42.403Z,10.81
2023-03-07T12:15:41.631Z,11.02
2023-03-07T12:18:33.011Z,10.81
2023-03-07T12:21:33.508Z,10.76
2023-03-07T12:24:05.724Z,10.86
2023-03-07T12:27:02.395Z,10.78
2023-03-07T12:29:38.672Z,10.89
2023-03-07T12:32:12.890Z,10.67
2023-03-07T12:34:47.933Z,10.55
2023-03-07T12:37:23.295Z,10.81
2023-03-07T12:39:55.100Z,10.82
2023-03-07T12:42:40.602Z,10.66
2023-03-07T12:45:07.209Z,10.63
2023-03-07T12:48:01.993Z,10.69
2023-03-07T12:50:52.493Z,11.03
2023-03-07T12:53:42.722Z,10.76
2023-03-07T12:56:19.130Z,10.88
2023-03-07T12:58:51.843Z,10.82
2023-03-07T13:01:34.936Z,10.94
2023-03-07T13:04:17.483Z,10.81
2023-03-07T13:06:46.158Z,10.99
2023-03-07T13:09:33.316Z,10.92
2023-03-07T13:12:25.299Z,10.61
2023-03-07T13:14:55.064Z,10.66
2023-03-07T13:17:30.808Z,10.74
2023-03-07T13:19:59.804Z,10.43
2023-03-07T13:22:26.259Z,10.44
2023-03-07T13:24:58.552Z,10.62
2023-03-07T13:27:28.153Z,10.56
2023-03-07T13:30:10.140Z,10.69
2023-03-07T13:32:49.192Z,10.73
2023-03-07T13:35:30.943Z,10.83
2023-03-07T13:37:58.863Z,10.67
2023-03-07T13:40:48.855Z,10.95
2023-03-07T13:43:18.745Z,10.90
2023-03-07T13:45:56.915Z,10.83
2023-03-07T13:48:26.518Z,11.14
2023-03-07T13:50:53.436Z,10.90
2023-03-07T13:53:28.802Z,10.97
2023-03-07T13:55:57.965Z,10.78
2023-03-07T13:58:36.005Z,10.85
2023-03-07T14:01:30.785Z,10.68
2023-03-07T14:04:05.918Z,10.83
2023-03-07T14:06:42.208Z,10.56
2023-03-07T14:09:14.900Z,10.52
2023-03-07T14:11:44.466Z,10.57
2023-03-07T14:14:20.377Z,10.54
2023-03-07T14:17:02.169Z,10.66
2023-03-07T14:19:47.708Z,10.87
2023-03-07T14:22:40.453Z,10.55
2023-03-07T14:25:17.680Z,10.39
2023-03-07T14:27:58.585Z,10.51
2023-03-07T14:30:28.746Z,10.49
2023-03-07T14:32:55.649Z,10.57
2023-03-07T14:35:43.548Z,10.64
2023-03-07T14:38:22.318Z,10.54
2023-03-07T14:41:00.892Z,10.60
2023-03-07T14:43:38.326Z,10.74
2023-03-07T14:46:43.364Z,10.69
2023-03-07T14:49:29.045Z,10.86
2023-03-07T14:51:55.734Z,10.53
2023-03-07T14:54:29.570Z,10.48
2023-03-07T14:56:58.434Z,10.34
2023-03-07T14:59:29.111Z,10.47
2023-03-07T15:01:57.192Z,10.47
2023-03-07T15:04:27.872Z,10.67
2023-03-07T15:07:00.010Z,10.62
2023-03-07T15:09:27.605Z,10.35
2023-03-07T15:11:57.464Z,10.32
2023-03-07T15:14:47.501Z,10.26
2023-03-07T15:17:24.541Z,10.39
2023-03-07T15:20:02.172Z,10.52
2023-03-07T15:22:39.312Z,10.45
2023-03-07T15:25:16.754Z,10.31
2023-03-07T15:27:43.455Z,10.33
2023-03-07T15:30:24.402Z,10.56
2023-03-07T15:33:32.020Z,10.64
2023-03-07T15:36:15.168Z,10.49
2023-03-07T15:39:26.546Z,10.50
2023-03-07T15:42:01.282Z,10.53
2023-03-07T15:44:28.093Z,10.60
2023-03-07T15:46:57.869Z,10.64
2023-03-07T15:49:47.518Z,10.53
2023-03-07T15:52:31.421Z,10.49
2023-03-07T15:55:00.281Z,10.29
2023-03-07T15:57:37.017Z,10.12
2023-03-07T16:00:07.353Z,9.95
2023-03-07T16:02:41.307Z,9.90
2023-03-07T16:05:28.900Z,9.88
2023-03-07T16:07:57.432Z,9.90
2023-03-07T16:10:28.418Z,10.25
2023-03-07T16:12:55.832Z,10.50
2023-03-07T16:15:23.877Z,10.39
2023-03-07T16:17:54.916Z,10.29
2023-03-07T16:20:25.839Z,10.39
2023-03-07T16:22:52.951Z,10.54
2023-03-07T16:25:20.644Z,10.65
2023-03-07T16:27:53.272Z,10.70
2023-03-07T16:30:23.009Z,10.84
2023-03-07T16:32:49.815Z,10.89
2023-03-07T16:35:18.147Z,10.85
2023-03-07T16:37:45.596Z,10.61
2023-03-07T16:40:13.496Z,10.32
2023-03-07T16:42:45.506Z,10.56
2023-03-07T16:45:18.402Z,10.85
2023-03-07T16:47:46.766Z,10.25
2023-03-07T16:50:18.697Z,10.40
2023-03-07T16:52:45.322Z,10.30
2023-03-07T16:55:14.084Z,10.28
2023-03-07T16:57:43.830Z,10.56
2023-03-07T17:00:16.780Z,10.28
2023-03-07T17:02:44.374Z,10.34
2023-03-07T17:05:26.154Z,10.41
2023-03-07T17:07:54.323Z,10.46
2023-03-07T17:10:21.766Z,10.26
2023-03-07T17:12:50.148Z,10.09
2023-03-07T17:15:19.546Z,10.03
2023-03-07T17:17:46.508Z,10.15
2023-03-07T17:20:15.541Z,10.17
2023-03-07T17:22:42.557Z,10.48
2023-03-07T17:25:10.516Z,10.36
2023-03-07T17:27:43.129Z,10.59
2023-03-07T17:30:23.751Z,10.49
2023-03-07T17:32:50.773Z,10.39
2023-03-07T17:35:17.852Z,10.28
2023-03-07T17:37:48.554Z,10.27
2023-03-07T17:40:15.531Z,10.18
2023-03-07T17:42:43.411Z,10.13
2023-03-07T17:45:12.528Z,10.17
2023-03-07T17:47:39.753Z,10.36
2023-03-07T17:50:08.143Z,10.42
2023-03-07T17:52:35.181Z,10.12
2023-03-07T17:55:01.837Z,9.94
2023-03-07T17:57:29.291Z,9.70
2023-03-07T17:59:56.078Z,9.77
2023-03-07T18:02:22.767Z,9.91
2023-03-07T18:04:51.377Z,9.84
2023-03-07T18:07:19.615Z,10.02
2023-03-07T18:09:48.501Z,9.75
2023-03-07T18:12:18.093Z,9.86
2023-03-07T18:14:44.679Z,9.67
2023-03-07T18:17:11.234Z,9.67
2023-03-07T18:19:38.725Z,9.58
2023-03-07T18:22:05.923Z,9.48
2023-03-07T18:24:32.615Z,9.52
2023-03-07T18:26:59.552Z,9.73
2023-03-07T18:29:27.650Z,9.55
2023-03-07T18:31:54.292Z,9.49
2023-03-07T18:34:22.146Z,9.60
2023-03-07T18:36:51.515Z,9.69
2023-03-07T18:39:19.901Z,9.47
2023-03-07T18:41:47.921Z,9.55
2023-03-07T18:44:14.856Z,9.51
2023-03-07T18:46:42.149Z,9.24
2023-03-07T18:49:09.234Z,9.36
2023-03-07T18:51:36.332Z,9.50
2023-03-07T18:54:03.549Z,9.73
2023-03-07T18:56:30.812Z,9.42
2023-03-07T18:59:00.977Z,9.54
2023-03-07T19:01:30.715Z,9.30
2023-03-07T19:04:00.225Z,9.41
2023-03-07T19:06:38.605Z,9.48
2023-03-07T19:09:05.658Z,9.42
2023-03-07T19:11:32.677Z,9.43
2023-03-07T19:13:59.372Z,9.40
2023-03-07T19:16:28.107Z,9.47
2023-03-07T19:18:55.660Z,9.53
2023-03-07T19:21:24.699Z,9.42
2023-03-07T19:23:53.177Z,9.57
2023-03-07T19:26:21.224Z,9.53
2023-03-07T19:28:50.556Z,9.49
2023-03-07T19:31:27.500Z,9.54
2023-03-07T19:33:54.775Z,9.39
2023-03-07T19:36:27.020Z,9.34
2023-03-07T19:38:56.178Z,9.47
2023-03-07T19:41:24.881Z,9.50
2023-03-07T19:43:52.456Z,9.64
2023-03-07T19:46:20.939Z,9.60
2023-03-07T19:48:48.187Z,9.70
2023-03-07T19:51:20.276Z,9.80
2023-03-07T19:53:47.524Z,9.72
2023-03-07T19:56:18.955Z,9.72
2023-03-07T19:58:45.692Z,9.71
2023-03-07T20:01:15.529Z,9.70
2023-03-07T20:03:42.496Z,9.75
2023-03-07T20:06:14.162Z,9.69
2023-03-07T20:08:40.933Z,9.74
2023-03-07T20:11:13.287Z,9.78
2023-03-07T20:13:41.422Z,9.63
2023-03-07T20:16:10.369Z,9.58
2023-03-07T20:18:38.186Z,9.65
2023-03-07T20:21:07.094Z,9.64
2023-03-07T20:23:34.565Z,9.64
2023-03-07T20:26:13.882Z,9.74
2023-03-07T20:28:40.540Z,9.69
2023-03-07T20:31:11.037Z,9.85
2023-03-07T20:33:39.760Z,9.84
2023-03-07T20:36:09.608Z,9.86
2023-03-07T20:38:37.496Z,9.87
2023-03-07T20:41:12.443Z,9.78
2023-03-07T20:43:39.377Z,9.78
2023-03-07T20:46:11.588Z,9.73
2023-03-07T20:48:40.202Z,9.78
2023-03-07T20:51:11.229Z,9.89
2023-03-07T20:53:37.889Z,9.93
2023-03-07T20:56:05.703Z,9.94
2023-03-07T20:58:32.971Z,9.90
2023-03-07T21:01:00.466Z,9.92
2023-03-07T21:03:27.569Z,9.51
2023-03-07T21:05:55.057Z,9.53
2023-03-07T21:08:21.730Z,9.55
2023-03-07T21:10:57.969Z,9.62
2023-03-07T21:13:24.503Z,9.57
2023-03-07T21:16:03.588Z,9.64
2023-03-07T21:18:30.578Z,9.51
2023-03-07T21:21:01.569Z,9.49
2023-03-07T21:23:28.427Z,9.61
2023-03-07T21:26:10.150Z,9.68
2023-03-07T21:28:37.241Z,9.56
2023-03-07T21:31:06.839Z,9.52
2023-03-07T21:33:34.588Z,9.57
2023-03-07T21:36:02.186Z,9.64
2023-03-07T21:38:28.840Z,9.73
2023-03-07T21:40:55.789Z,9.68
2023-03-07T21:43:23.004Z,9.84
2023-03-07T21:45:49.607Z,9.73
2023-03-07T21:48:16.982Z,9.86
2023-03-07T21:50:44.748Z,9.70
2023-03-07T21:53:12.165Z,9.56
2023-03-07T21:55:38.933Z,9.63
2023-03-07T21:58:05.650Z,9.66
2023-03-07T22:00:32.338Z,9.59
2023-03-07T22:02:59.026Z,9.61
2023-03-07T22:05:25.631Z,9.85
2023-03-07T22:07:52.238Z,9.87
2023-03-07T22:10:19.371Z,9.77
2023-03-07T22:12:46.011Z,9.79
2023-03-07T22:15:12.640Z,9.67
2023-03-07T22:17:39.216Z,9.61
2023-03-07T22:20:06.218Z,9.71
2023-03-07T22:22:32.725Z,9.87
2023-03-07T22:24:59.295Z,9.84
2023-03-07T22:27:25.914Z,9.75
2023-03-07T22:29:52.496Z,9.62
2023-03-07T22:32:19.090Z,9.64
2023-03-07T22:34:45.577Z,9.73
2023-03-07T22:37:12.461Z,9.71
2023-03-07T22:39:38.933Z,9.86
2023-03-07T22:42:05.599Z,9.86
2023-03-07T22:44:32.091Z,9.61
2023-03-07T22:46:58.699Z,9.66
2023-03-07T22:49:26.801Z,9.59
2023-03-07T22:51:54.128Z,9.83
2023-03-07T22:54:20.739Z,9.82
2023-03-07T22:56:47.343Z,9.56
2023-03-07T22:59:14.049Z,9.47
2023-03-07T23:01:40.606Z,9.44
2023-03-07T23:04:08.914Z,9.36
2023-03-07T23:06:36.903Z,9.17
2023-03-07T23:09:06.352Z,9.14
2023-03-07T23:11:33.832Z,9.15
2023-03-07T23:14:00.735Z,9.25
2023-03-07T23:16:29.433Z,9.34
2023-03-07T23:18:57.613Z,9.32
2023-03-07T23:21:26.754Z,9.38
2023-03-07T23:23:54.188Z,9.44
2023-03-07T23:26:26.070Z,9.30
2023-03-07T23:28:52.628Z,9.21
2023-03-07T23:31:21.460Z,9.26
2023-03-07T23:33:48.919Z,9.35
2023-03-07T23:36:17.097Z,9.33
2023-03-07T23:38:46.026Z,9.32
2023-03-07T23:41:12.926Z,9.26
2023-03-07T23:43:40.213Z,9.42
2023-03-07T23:46:06.756Z,9.46
2023-03-07T23:48:33.310Z,9.45
2023-03-07T23:50:59.789Z,9.41
2023-03-07T23:53:26.522Z,9.43
2023-03-07T23:55:53.045Z,9.41
2023-03-07T23:58:19.661Z,9.48
